Time;durP1;ratioP1;P1;durP2;ratioP2;P2;SDS_P1;SDS_P2;PMS_P1;PMS_P2;Temp;Humidity;BMP_temperature;BMP_pressure;BME280_temperature;BME280_humidity;BME280_pressure;Samples;Min_cycle;Max_cycle;Signal;HPM_P1;HPM_P2
2021/05/01 00:02:18;;;;;;;5.10;2.08;;;18.30;64.40;;;;;;5088027;28;20032;-75
2021/05/01 00:04:45;;;;;;;8.68;2.25;;;18.30;64.50;;;;;;5087521;28;20134;-75
2021/05/01 00:07:11;;;;;;;8.63;2.17;;;18.30;64.60;;;;;;5087090;28;20043;-74
2021/05/01 00:09:38;;;;;;;7.55;2.38;;;18.30;64.90;;;;;;5090734;28;20391;-74
2021/05/01 00:12:05;;;;;;;10.57;2.30;;;18.30;64.60;;;;;;5089280;28;20411;-74
2021/05/01 00:14:32;;;;;;;4.57;1.80;;;18.30;64.70;;;;;;5089897;28;20491;-74
2021/05/01 00:16:59;;;;;;;7.85;2.15;;;18.30;64.70;;;;;;5088389;28;20017;-74
2021/05/01 00:19:25;;;;;;;6.28;2.15;;;18.30;64.70;;;;;;5090581;28;20523;-74
2021/05/01 00:21:52;;;;;;;9.60;3.35;;;18.30;64.70;;;;;;5088826;28;20035;-75
2021/05/01 00:24:18;;;;;;;7.88;2.75;;;18.30;64.70;;;;;;5074100;28;20019;-75
2021/05/01 00:26:45;;;;;;;12.43;2.25;;;18.30;64.70;;;;;;5089439;28;20482;-74
2021/05/01 00:29:11;;;;;;;6.45;2.00;;;18.30;64.80;;;;;;5090269;28;20099;-74
2021/05/01 00:31:38;;;;;;;7.90;2.55;;;18.30;64.80;;;;;;5086881;28;20052;-74
2021/05/01 00:34:05;;;;;;;7.38;2.53;;;18.30;64.90;;;;;;5088634;28;20142;-75
2021/05/01 00:36:31;;;;;;;9.55;2.00;;;18.30;64.90;;;;;;5086628;28;20043;-74
2021/05/01 00:38:58;;;;;;;7.85;3.05;;;18.30;65.00;;;;;;5078805;28;20108;-75
2021/05/01 00:41:25;;;;;;;7.20;2.13;;;18.30;65.00;;;;;;5088483;28;20028;-74
2021/05/01 00:43:52;;;;;;;5.65;2.40;;;18.30;65.10;;;;;;5086779;28;20473;-74
2021/05/01 00:46:18;;;;;;;8.88;1.83;;;18.30;65.10;;;;;;5088290;28;20520;-74
2021/05/01 00:48:45;;;;;;;8.10;2.38;;;18.20;65.00;;;;;;5091262;28;20024;-74
2021/05/01 00:51:11;;;;;;;10.63;2.30;;;18.30;65.10;;;;;;5085818;28;20020;-74
2021/05/01 00:53:39;;;;;;;5.78;1.60;;;18.30;65.10;;;;;;5085948;28;20024;-75
2021/05/01 00:56:06;;;;;;;10.13;2.53;;;18.30;65.00;;;;;;5088055;28;20028;-75
2021/05/01 00:58:33;;;;;;;12.02;2.60;;;18.30;65.10;;;;;;5086173;28;20044;-74
2021/05/01 01:03:38;;;;;;;10.55;2.28;;;18.20;65.00;;;;;;5089751;28;20344;-74
2021/05/01 01:06:06;;;;;;;9.98;2.00;;;18.20;65.10;;;;;;5087544;28;20111;-74
2021/05/01 01:08:33;;;;;;;9.38;1.67;;;18.20;65.10;;;;;;5088707;28;20020;-74
2021/05/01 01:10:59;;;;;;;7.38;1.77;;;18.20;65.00;;;;;;5091483;28;20467;-74
2021/05/01 01:13:27;;;;;;;11.38;2.30;;;18.20;65.00;;;;;;5084695;28;20016;-75
2021/05/01 01:15:53;;;;;;;5.90;1.90;;;18.20;65.10;;;;;;5086323;28;20135;-74
2021/05/01 01:18:20;;;;;;;5.70;1.52;;;18.20;65.10;;;;;;5087804;28;20107;-74
2021/05/01 01:20:47;;;;;;;7.47;2.53;;;18.20;65.20;;;;;;5087657;28;20093;-74
2021/05/01 01:23:13;;;;;;;7.20;1.80;;;18.10;65.10;;;;;;5086843;28;20379;-74
2021/05/01 01:25:41;;;;;;;7.38;1.52;;;18.20;65.30;;;;;;5088736;28;20093;-73
2021/05/01 01:28:08;;;;;;;6.35;2.03;;;18.20;65.30;;;;;;5086944;28;20032;-76
2021/05/01 01:30:35;;;;;;;7.60;2.00;;;18.20;65.40;;;;;;5085169;28;20036;-74
2021/05/01 01:33:09;;;;;;;7.80;2.72;;;18.20;65.50;;;;;;5090196;28;20027;-74
2021/05/01 01:35:37;;;;;;;7.77;3.00;;;18.10;65.30;;;;;;5089917;28;20118;-74
2021/05/01 01:38:05;;;;;;;5.97;1.77;;;18.20;65.40;;;;;;5088040;28;20063;-74
2021/05/01 01:40:32;;;;;;;7.03;2.03;;;18.10;65.30;;;;;;5087157;28;20483;-74
2021/05/01 01:42:59;;;;;;;4.60;1.75;;;18.10;66.00;;;;;;5084038;28;20060;-74
2021/05/01 01:45:27;;;;;;;9.00;1.95;;;18.10;65.40;;;;;;5088700;28;20031;-74
2021/05/01 01:47:56;;;;;;;4.30;1.60;;;18.10;65.50;;;;;;5085588;28;20016;-74
2021/05/01 01:50:24;;;;;;;9.02;1.70;;;18.10;65.50;;;;;;5085665;28;20066;-74
2021/05/01 01:52:51;;;;;;;4.90;1.42;;;18.10;65.50;;;;;;5085716;28;20082;-74
2021/05/01 01:55:21;;;;;;;5.45;2.60;;;18.10;65.50;;;;;;5083822;28;20035;-75
2021/05/01 01:57:48;;;;;;;4.78;1.63;;;18.10;65.60;;;;;;5087743;28;20031;-74
2021/05/01 02:00:22;;;;;;;11.02;2.75;;;18.10;65.60;;;;;;5082531;28;20034;-75
2021/05/01 02:02:49;;;;;;;10.50;2.00;;;18.10;65.90;;;;;;5087426;28;20032;-75
2021/05/01 02:05:16;;;;;;;5.07;2.08;;;18.10;65.70;;;;;;5088435;28;20012;-75
2021/05/01 02:07:43;;;;;;;11.35;2.03;;;18.10;65.80;;;;;;5087838;28;20021;-74
2021/05/01 02:10:11;;;;;;;5.70;1.70;;;18.10;65.80;;;;;;5088200;28;20367;-75
2021/05/01 02:12:39;;;;;;;11.63;3.83;;;18.00;65.90;;;;;;5083707;28;20424;-75
2021/05/01 02:15:16;;;;;;;6.15;2.80;;;18.00;65.90;;;;;;5088429;28;20039;-75
2021/05/01 02:17:46;;;;;;;6.03;2.10;;;18.00;65.90;;;;;;5085115;28;20020;-75
2021/05/01 02:20:20;;;;;;;12.88;2.60;;;18.00;66.00;;;;;;5084995;28;20028;-74
2021/05/01 02:22:47;;;;;;;8.23;2.35;;;18.00;66.10;;;;;;5088190;28;20054;-75
2021/05/01 02:25:14;;;;;;;11.00;2.35;;;18.00;66.30;;;;;;5086248;28;20479;-75
2021/05/01 02:27:41;;;;;;;10.77;2.28;;;18.00;66.60;;;;;;5086070;28;20107;-75
2021/05/01 02:30:11;;;;;;;14.13;5.07;;;18.00;66.40;;;;;;5088534;28;20031;-74
2021/05/01 02:32:39;;;;;;;11.55;5.80;;;18.00;67.20;;;;;;5086043;28;20032;-74
2021/05/01 02:35:11;;;;;;;13.52;5.60;;;18.00;66.60;;;;;;5082419;28;20535;-74
2021/05/01 02:37:38;;;;;;;11.90;3.92;;;18.00;66.70;;;;;;5086327;28;20379;-74
2021/05/01 02:40:07;;;;;;;9.75;3.53;;;18.00;66.70;;;;;;5083402;28;20123;-75
2021/05/01 02:42:34;;;;;;;8.05;2.72;;;18.00;66.70;;;;;;5086139;28;20203;-74
2021/05/01 02:45:01;;;;;;;5.75;2.72;;;18.00;66.70;;;;;;5089202;28;20032;-74
2021/05/01 02:47:28;;;;;;;10.40;2.40;;;18.00;66.70;;;;;;5084918;28;20439;-74
2021/05/01 02:49:54;;;;;;;8.55;2.95;;;18.00;66.80;;;;;;5079972;28;20024;-74
2021/05/01 02:52:21;;;;;;;8.63;2.53;;;18.00;66.80;;;;;;5084048;28;20032;-74
2021/05/01 02:54:48;;;;;;;9.70;3.38;;;18.00;66.80;;;;;;5087938;28;20017;-74
2021/05/01 02:57:15;;;;;;;9.93;2.63;;;17.90;66.80;;;;;;5084550;28;20375;-74
2021/05/01 02:59:41;;;;;;;13.48;3.03;;;17.90;66.70;;;;;;5086047;28;20028;-73
2021/05/01 03:02:08;;;;;;;7.00;2.10;;;18.00;66.80;;;;;;5083333;28;20028;-73
2021/05/01 03:04:34;;;;;;;11.50;2.55;;;17.90;66.80;;;;;;5088642;28;20024;-74
2021/05/01 03:07:01;;;;;;;7.47;2.75;;;17.90;67.60;;;;;;5086492;28;20036;-74
2021/05/01 03:09:28;;;;;;;6.13;2.05;;;17.90;66.90;;;;;;5062757;28;20028;-74
2021/05/01 03:11:55;;;;;;;10.15;2.58;;;17.90;66.90;;;;;;5087956;28;20461;-75
2021/05/01 03:15:03;;;;;;;13.73;2.83;;;17.90;66.90;;;;;;5077514;28;20095;-75
2021/05/01 03:17:30;;;;;;;6.35;2.42;;;17.90;67.00;;;;;;5086307;28;20028;-74
2021/05/01 03:19:57;;;;;;;12.32;3.92;;;17.90;66.90;;;;;;5083285;28;20051;-75
2021/05/01 03:22:24;;;;;;;19.98;11.43;;;17.90;67.00;;;;;;5083289;28;20039;-74
2021/05/01 03:24:53;;;;;;;20.15;11.80;;;17.80;66.90;;;;;;5082156;28;20375;-74
2021/05/01 03:27:20;;;;;;;18.20;11.10;;;17.80;66.90;;;;;;5083019;28;20102;-74
2021/05/01 03:29:47;;;;;;;12.20;6.95;;;17.80;66.90;;;;;;5071826;28;20028;-74
2021/05/01 03:32:14;;;;;;;10.32;6.07;;;17.80;66.80;;;;;;5083272;28;20040;-74
2021/05/01 03:34:42;;;;;;;12.32;5.07;;;17.80;66.80;;;;;;5084437;28;20020;-74
2021/05/01 03:37:09;;;;;;;13.07;4.45;;;17.80;66.80;;;;;;5081132;28;20483;-74
2021/05/01 03:39:35;;;;;;;7.88;3.40;;;17.80;66.70;;;;;;5085117;28;20695;-74
2021/05/01 03:42:02;;;;;;;10.73;2.72;;;17.80;66.70;;;;;;5088254;28;20027;-75
2021/05/01 03:44:29;;;;;;;9.52;3.67;;;17.80;66.70;;;;;;5081985;28;20016;-76
2021/05/01 03:46:57;;;;;;;6.60;2.45;;;17.80;66.70;;;;;;5083724;28;20111;-74
2021/05/01 03:49:24;;;;;;;7.78;1.98;;;17.70;66.60;;;;;;5087804;28;20426;-74
2021/05/01 03:51:51;;;;;;;9.88;3.17;;;17.70;66.60;;;;;;5083704;28;20465;-74
2021/05/01 03:54:18;;;;;;;10.98;3.33;;;17.70;66.60;;;;;;5086367;28;20028;-74
2021/05/01 03:56:45;;;;;;;6.95;1.98;;;17.70;66.60;;;;;;5087195;28;20062;-75
2021/05/01 03:59:12;;;;;;;12.43;6.95;;;17.70;66.50;;;;;;5082397;28;20095;-75
2021/05/01 04:01:38;;;;;;;25.85;14.70;;;17.70;66.50;;;;;;5085224;28;20056;-73
2021/05/01 04:04:06;;;;;;;14.18;10.43;;;17.70;66.50;;;;;;5086090;28;20474;-76
2021/05/01 04:06:33;;;;;;;17.75;9.07;;;17.70;66.40;;;;;;5083066;28;20051;-73
2021/05/01 04:09:01;;;;;;;9.30;6.28;;;17.70;66.30;;;;;;5087067;28;20021;-74
2021/05/01 04:11:28;;;;;;;13.55;4.55;;;17.70;66.30;;;;;;5087267;28;20463;-74
2021/05/01 04:13:55;;;;;;;15.68;5.22;;;17.70;66.30;;;;;;5090832;28;20019;-74
2021/05/01 04:16:22;;;;;;;12.43;3.65;;;17.70;66.20;;;;;;5089779;28;20036;-75
2021/05/01 04:18:49;;;;;;;10.55;2.60;;;17.70;66.20;;;;;;5088105;28;20111;-74
2021/05/01 04:21:16;;;;;;;6.15;2.22;;;17.70;66.10;;;;;;5086730;28;20108;-74
2021/05/01 04:23:44;;;;;;;9.27;2.92;;;17.70;66.00;;;;;;5088854;28;20026;-74
2021/05/01 04:26:12;;;;;;;7.93;2.38;;;17.60;65.90;;;;;;5084892;28;20434;-74
2021/05/01 04:28:39;;;;;;;8.30;2.15;;;17.60;65.90;;;;;;5089425;28;20113;-74
2021/05/01 04:31:05;;;;;;;8.90;3.17;;;17.60;65.90;;;;;;5086704;28;20517;-77
2021/05/01 04:33:32;;;;;;;11.18;3.28;;;17.60;65.80;;;;;;5087147;28;20413;-75
2021/05/01 04:35:59;;;;;;;12.15;8.35;;;17.60;65.80;;;;;;5090478;28;20406;-75
2021/05/01 04:38:25;;;;;;;24.08;12.32;;;17.60;65.70;;;;;;5088831;28;20027;-74
2021/05/01 04:40:52;;;;;;;17.38;9.00;;;17.60;65.70;;;;;;5086962;28;20035;-75
2021/05/01 04:43:24;;;;;;;13.50;6.93;;;17.60;65.60;;;;;;5087889;28;20384;-74
2021/05/01 04:45:52;;;;;;;9.32;4.88;;;17.60;65.70;;;;;;5089289;28;20123;-74
2021/05/01 04:48:19;;;;;;;12.60;3.83;;;17.50;65.60;;;;;;5084903;28;20095;-75
2021/05/01 04:50:51;;;;;;;7.65;3.97;;;17.50;65.60;;;;;;5080288;28;20012;-75
2021/05/01 04:53:19;;;;;;;8.88;2.75;;;17.50;65.60;;;;;;5088700;28;20043;-74
2021/05/01 04:55:46;;;;;;;8.10;2.88;;;17.50;65.70;;;;;;5085870;28;20111;-74
2021/05/01 04:58:12;;;;;;;9.05;3.10;;;17.50;65.70;;;;;;5089063;28;20031;-74
2021/05/01 05:00:39;;;;;;;8.05;2.80;;;17.50;65.90;;;;;;5089292;28;20020;-74
2021/05/01 05:03:06;;;;;;;14.02;3.42;;;17.50;65.90;;;;;;5086270;28;20024;-74
2021/05/01 05:05:32;;;;;;;8.07;4.15;;;17.50;65.90;;;;;;5087341;28;20024;-74
2021/05/01 05:07:59;;;;;;;6.72;2.50;;;17.50;66.00;;;;;;5086896;28;20391;-74
2021/05/01 05:10:26;;;;;;;7.45;2.15;;;17.50;66.00;;;;;;5083001;28;20017;-73
2021/05/01 05:12:52;;;;;;;6.45;2.60;;;17.50;66.00;;;;;;5083983;28;20455;-75
2021/05/01 05:15:58;;;;;;;5.85;2.00;;;17.50;65.90;;;;;;5085684;28;20035;-75
2021/05/01 05:19:04;;;;;;;10.35;3.00;;;17.40;65.80;;;;;;5083291;28;20110;-76
2021/05/01 05:22:10;;;;;;;7.82;5.13;;;17.50;65.90;;;;;;5081341;28;20024;-76
2021/05/01 05:25:16;;;;;;;21.42;15.60;;;17.50;65.70;;;;;;5082853;28;20031;-74
2021/05/01 05:28:22;;;;;;;21.45;13.23;;;17.50;65.60;;;;;;5078274;28;20013;-76
2021/05/01 05:30:49;;;;;;;13.45;8.48;;;17.50;65.50;;;;;;5069302;28;20042;-75
2021/05/01 05:33:15;;;;;;;10.25;6.78;;;17.50;65.50;;;;;;5067239;28;20357;-76
2021/05/01 05:35:42;;;;;;;12.10;5.38;;;17.50;66.00;;;;;;5086494;28;20028;-74
2021/05/01 05:38:09;;;;;;;7.18;3.40;;;17.50;65.40;;;;;;5085583;28;20024;-74
2021/05/01 05:40:40;;;;;;;6.63;3.15;;;17.40;65.30;;;;;;5081669;28;20023;-75
2021/05/01 05:43:07;;;;;;;5.22;2.67;;;17.40;65.20;;;;;;5082057;28;20055;-74
2021/05/01 05:45:34;;;;;;;4.85;1.90;;;17.40;65.10;;;;;;5081367;28;20024;-74
2021/05/01 05:48:01;;;;;;;9.75;1.90;;;17.50;65.10;;;;;;5080412;28;20066;-73
2021/05/01 05:50:27;;;;;;;6.50;1.95;;;17.50;65.00;;;;;;5079883;28;20095;-73
2021/05/01 05:52:54;;;;;;;7.68;1.63;;;17.50;64.90;;;;;;5082720;28;20108;-75
2021/05/01 05:55:21;;;;;;;4.32;1.90;;;17.40;64.70;;;;;;5077799;28;20508;-73
2021/05/01 05:57:52;;;;;;;8.25;1.98;;;17.50;64.70;;;;;;5081473;28;20059;-72
2021/05/01 06:00:22;;;;;;;39.55;5.68;;;17.40;64.70;;;;;;5084155;28;20394;-73
2021/05/01 06:02:52;;;;;;;32.13;7.35;;;17.40;64.60;;;;;;5080273;28;20102;-73
2021/05/01 06:05:26;;;;;;;23.38;3.17;;;17.40;65.10;;;;;;5082989;28;20111;-73
2021/05/01 06:07:57;;;;;;;13.10;2.75;;;17.40;64.40;;;;;;5078089;28;20106;-74
2021/05/01 06:10:24;;;;;;;8.05;1.90;;;17.50;64.30;;;;;;5081964;28;20024;-74
2021/05/01 06:12:53;;;;;;;11.75;6.85;;;17.40;64.30;;;;;;5079364;28;20016;-73
2021/05/01 06:15:20;;;;;;;19.85;10.25;;;17.40;64.50;;;;;;5082717;28;20032;-73
2021/05/01 06:17:51;;;;;;;14.75;8.50;;;17.40;64.60;;;;;;5081240;28;20016;-73
2021/05/01 06:20:17;;;;;;;11.50;6.05;;;17.40;64.70;;;;;;5081492;28;20073;-74
2021/05/01 06:22:44;;;;;;;13.00;5.65;;;17.40;64.80;;;;;;5084198;28;20103;-72
2021/05/01 06:25:12;;;;;;;8.45;3.95;;;17.40;64.80;;;;;;5082191;28;20077;-73
2021/05/01 06:27:41;;;;;;;9.48;5.75;;;17.40;64.80;;;;;;5080184;28;20044;-73
2021/05/01 06:30:22;;;;;;;10.35;4.03;;;17.40;65.50;;;;;;5083604;28;20694;-72
2021/05/01 06:32:50;;;;;;;9.70;3.78;;;17.40;64.70;;;;;;5063790;28;20051;-72
2021/05/01 06:35:18;;;;;;;5.72;2.17;;;17.40;64.60;;;;;;5086587;28;20127;-73
2021/05/01 06:37:46;;;;;;;7.10;2.70;;;17.40;64.60;;;;;;5085225;28;20029;-73
2021/05/01 06:40:16;;;;;;;9.88;2.60;;;17.50;64.60;;;;;;5082632;28;20817;-73
2021/05/01 06:43:01;;;;;;;7.55;2.72;;;17.50;64.60;;;;;;5081452;28;20016;-73
2021/05/01 06:45:28;;;;;;;9.63;2.47;;;17.50;64.50;;;;;;5088319;28;20038;-73
2021/05/01 06:48:05;;;;;;;6.40;2.28;;;17.50;64.50;;;;;;5089390;28;20020;-74
2021/05/01 06:50:34;;;;;;;7.95;4.68;;;17.50;64.60;;;;;;5088857;28;20020;-72
2021/05/01 06:53:01;;;;;;;8.82;4.65;;;17.50;64.70;;;;;;5090264;28;20493;-73
2021/05/01 06:55:32;;;;;;;6.55;2.80;;;17.60;64.40;;;;;;5089557;28;20059;-72
2021/05/01 06:58:01;;;;;;;7.18;2.10;;;17.60;64.40;;;;;;5089919;28;20022;-74
2021/05/01 07:00:30;;;;;;;8.60;3.05;;;17.60;64.70;;;;;;5090222;28;20487;-73
2021/05/01 07:03:09;;;;;;;9.18;3.75;;;17.50;64.80;;;;;;5089299;28;20015;-73
2021/05/01 07:05:36;;;;;;;18.45;10.35;;;17.60;64.90;;;;;;5088569;28;20028;-75
2021/05/01 07:08:03;;;;;;;17.85;9.13;;;17.50;65.00;;;;;;5080454;28;20467;-73
2021/05/01 07:10:30;;;;;;;12.52;7.63;;;17.60;65.10;;;;;;5098959;28;20008;-73
2021/05/01 07:12:59;;;;;;;10.93;5.95;;;17.60;65.80;;;;;;5082896;28;20054;-73
2021/05/01 07:15:26;;;;;;;11.95;6.85;;;17.60;65.20;;;;;;5089680;28;20571;-75
2021/05/01 07:17:53;;;;;;;12.93;6.30;;;17.70;65.30;;;;;;5090266;28;20028;-73
2021/05/01 07:20:20;;;;;;;12.70;5.45;;;17.70;65.30;;;;;;5089059;28;20017;-72
2021/05/01 07:22:51;;;;;;;9.15;4.45;;;17.70;65.30;;;;;;5087525;28;20036;-73
2021/05/01 07:25:18;;;;;;;13.32;5.13;;;17.80;65.40;;;;;;5083856;28;20032;-74
2021/05/01 07:27:56;;;;;;;8.55;3.35;;;17.80;65.30;;;;;;5089607;28;20503;-74
2021/05/01 07:30:28;;;;;;;8.45;3.55;;;17.80;65.10;;;;;;5082883;28;20475;-74
2021/05/01 07:33:17;;;;;;;6.00;2.20;;;17.80;65.00;;;;;;5073805;28;20032;-74
2021/05/01 07:35:54;;;;;;;8.98;1.88;;;17.80;64.90;;;;;;5089332;28;20832;-74
2021/05/01 07:38:23;;;;;;;5.15;2.53;;;17.90;64.80;;;;;;5088866;28;20054;-74
2021/05/01 07:40:53;;;;;;;7.97;2.13;;;17.90;64.70;;;;;;5089581;28;20051;-74
2021/05/01 07:43:22;;;;;;;4.97;1.70;;;18.00;64.60;;;;;;5089540;28;20466;-74
2021/05/01 07:45:53;;;;;;;9.02;2.15;;;17.90;64.40;;;;;;5089385;28;20028;-74
2021/05/01 07:48:20;;;;;;;3.70;2.13;;;18.00;64.80;;;;;;5089977;28;20095;-74
2021/05/01 07:50:48;;;;;;;4.13;1.50;;;18.00;64.10;;;;;;5088517;28;20082;-75
2021/05/01 07:53:15;;;;;;;6.10;1.58;;;18.00;63.90;;;;;;5090717;28;20470;-74
2021/05/01 07:55:41;;;;;;;3.00;1.20;;;18.10;63.80;;;;;;5092285;28;20035;-75
2021/05/01 07:58:09;;;;;;;5.70;1.40;;;18.10;63.50;;;;;;5089464;28;20059;-74
2021/05/01 08:00:36;;;;;;;6.13;1.30;;;18.20;63.40;;;;;;5091086;28;20505;-75
2021/05/01 08:03:04;;;;;;;5.93;2.22;;;18.20;63.30;;;;;;5093116;28;20034;-75
2021/05/01 08:05:30;;;;;;;4.40;1.20;;;18.20;63.10;;;;;;5093234;28;20501;-74
2021/05/01 08:07:59;;;;;;;4.60;1.30;;;18.30;62.90;;;;;;5092439;28;20088;-74
2021/05/01 08:10:26;;;;;;;6.63;1.25;;;18.30;62.80;;;;;;5093229;28;20096;-74
2021/05/01 08:12:52;;;;;;;8.05;1.40;;;18.30;62.60;;;;;;5092330;28;20428;-74
2021/05/01 08:15:19;;;;;;;5.63;2.75;;;18.30;62.40;;;;;;5075368;28;20386;-73
2021/05/01 08:17:45;;;;;;;3.47;2.13;;;18.40;62.30;;;;;;5085960;28;20016;-74
2021/05/01 08:20:14;;;;;;;6.97;2.28;;;18.40;62.00;;;;;;5092962;28;20034;-73
2021/05/01 08:22:44;;;;;;;6.03;1.40;;;18.50;61.90;;;;;;5093093;28;20017;-74
2021/05/01 08:25:12;;;;;;;5.25;1.45;;;18.50;61.70;;;;;;5087991;28;20038;-74
2021/05/01 08:27:39;;;;;;;5.95;1.60;;;18.50;61.60;;;;;;5091631;28;20039;-73
2021/05/01 08:30:10;;;;;;;7.65;2.05;;;18.60;61.60;;;;;;5091641;28;20100;-73
2021/05/01 08:32:37;;;;;;;4.45;1.80;;;18.60;61.50;;;;;;5075269;28;20039;-75
2021/05/01 08:35:04;;;;;;;7.38;1.70;;;18.60;61.30;;;;;;5091911;28;20013;-74
2021/05/01 08:37:30;;;;;;;5.40;1.83;;;18.70;61.20;;;;;;5092888;28;20028;-74
2021/05/01 08:39:57;;;;;;;7.22;2.13;;;18.70;61.00;;;;;;5092675;28;20027;-74
2021/05/01 08:42:24;;;;;;;7.05;2.10;;;18.80;60.90;;;;;;5092004;28;20012;-74
2021/05/01 08:44:51;;;;;;;8.75;1.90;;;18.80;60.70;;;;;;5093175;28;20016;-74
2021/05/01 08:47:18;;;;;;;4.35;1.38;;;18.90;60.40;;;;;;5091653;28;20028;-73
2021/05/01 08:49:45;;;;;;;5.20;2.22;;;19.00;60.10;;;;;;5090689;28;20020;-74
2021/05/01 08:52:11;;;;;;;6.05;1.55;;;19.00;59.70;;;;;;5088413;28;20082;-74
2021/05/01 08:54:38;;;;;;;6.95;2.83;;;19.00;59.60;;;;;;5092063;28;20031;-74
2021/05/01 08:57:30;;;;;;;4.68;1.35;;;19.10;58.90;;;;;;5091589;28;20543;-74
2021/05/01 08:59:56;;;;;;;2.97;1.38;;;19.10;58.60;;;;;;5086639;28;20404;-74
2021/05/01 09:02:26;;;;;;;5.18;1.63;;;19.10;58.70;;;;;;5092437;28;20016;-74
2021/05/01 09:04:54;;;;;;;4.50;1.30;;;19.20;58.60;;;;;;5086662;28;20024;-74
2021/05/01 09:07:21;;;;;;;5.15;1.40;;;19.20;58.40;;;;;;5098336;28;20016;-74
2021/05/01 09:09:58;;;;;;;4.13;1.42;;;19.30;58.20;;;;;;5091651;28;20387;-74
2021/05/01 09:12:39;;;;;;;7.22;1.90;;;19.30;58.20;;;;;;5090719;28;20038;-74
2021/05/01 09:15:10;;;;;;;7.15;1.10;;;19.30;58.00;;;;;;5090626;28;20047;-74
2021/05/01 09:17:37;;;;;;;4.85;1.35;;;19.40;58.00;;;;;;5085385;28;20024;-73
2021/05/01 09:20:12;;;;;;;4.75;1.33;;;19.40;57.90;;;;;;5091055;28;20047;-74
2021/05/01 09:23:11;;;;;;;6.93;1.90;;;19.50;57.80;;;;;;5091172;28;20024;-74
2021/05/01 09:25:47;;;;;;;3.67;1.35;;;19.60;57.30;;;;;;5048701;28;20357;-74
2021/05/01 09:28:15;;;;;;;2.28;1.10;;;19.60;57.20;;;;;;5091932;28;20028;-75
2021/05/01 09:31:03;;;;;;;4.28;1.73;;;19.70;57.10;;;;;;5090648;28;20354;-74
2021/05/01 09:33:33;;;;;;;3.30;1.20;;;19.70;57.20;;;;;;5076873;28;20040;-74
2021/05/01 09:36:10;;;;;;;4.05;1.70;;;19.80;57.20;;;;;;5085727;28;20083;-74
2021/05/01 09:38:44;;;;;;;3.45;1.65;;;19.80;57.10;;;;;;5090804;28;20020;-71
2021/05/01 09:41:14;;;;;;;4.13;1.42;;;19.90;57.10;;;;;;5091776;28;20016;-75
2021/05/01 09:44:03;;;;;;;7.68;2.55;;;19.90;57.10;;;;;;5090367;28;20017;-71
2021/05/01 09:46:42;;;;;;;7.45;2.28;;;20.00;56.20;;;;;;5088567;28;20103;-75
2021/05/01 09:49:37;;;;;;;19.17;3.70;;;20.20;55.70;;;;;;5081955;28;20495;-71
2021/05/01 09:52:43;;;;;;;8.10;2.10;;;20.40;55.90;;;;;;5088281;28;20020;-70
2021/05/01 09:55:10;;;;;;;5.35;2.05;;;20.50;54.60;;;;;;5090968;28;20285;-68
2021/05/01 09:57:39;;;;;;;9.30;2.30;;;20.70;54.00;;;;;;5083357;28;20529;-70
2021/05/01 10:00:22;;;;;;;8.02;1.98;;;20.80;53.50;;;;;;5084290;28;20099;-68
2021/05/01 10:02:48;;;;;;;10.23;1.92;;;20.90;52.60;;;;;;5088802;28;20024;-72
2021/05/01 10:05:16;;;;;;;3.38;1.13;;;21.00;52.10;;;;;;5089742;28;20013;-72
2021/05/01 10:07:48;;;;;;;3.90;1.35;;;21.00;50.70;;;;;;5089890;28;20047;-73
2021/05/01 10:10:16;;;;;;;6.05;0.90;;;21.10;49.90;;;;;;5084855;28;20025;-74
2021/05/01 10:12:45;;;;;;;4.38;1.88;;;21.10;50.50;;;;;;5091181;28;20077;-71
2021/05/01 10:15:25;;;;;;;5.80;1.70;;;21.10;50.90;;;;;;5090741;28;20386;-71
2021/05/01 10:17:52;;;;;;;7.25;1.52;;;21.10;51.30;;;;;;5084248;28;20115;-72
2021/05/01 10:20:19;;;;;;;3.42;1.25;;;21.10;51.50;;;;;;5086271;28;20020;-72
2021/05/01 10:22:47;;;;;;;7.07;1.38;;;21.10;51.80;;;;;;5089844;28;20366;-72
2021/05/01 10:25:26;;;;;;;4.85;1.30;;;21.10;52.20;;;;;;5090226;28;20024;-72
2021/05/01 10:27:59;;;;;;;4.63;1.40;;;21.10;52.50;;;;;;5085767;28;20024;-71
2021/05/01 10:30:39;;;;;;;3.25;1.10;;;21.10;52.70;;;;;;5089780;28;20048;-70
2021/05/01 10:35:59;;;;;;;1.98;0.93;;;21.10;52.80;;;;;;5089181;28;20040;-73
2021/05/01 10:38:26;;;;;;;4.68;1.10;;;21.10;53.40;;;;;;5090211;28;20032;-73
2021/05/01 10:40:55;;;;;;;3.83;1.30;;;21.20;52.90;;;;;;5083951;28;20032;-73
2021/05/01 10:43:30;;;;;;;4.22;1.17;;;21.20;52.80;;;;;;5090138;28;20489;-73
2021/05/01 10:46:05;;;;;;;4.93;1.20;;;21.20;52.70;;;;;;5090686;28;20017;-73
2021/05/01 10:48:48;;;;;;;3.28;1.30;;;21.20;52.60;;;;;;5089481;28;20042;-72
2021/05/01 10:51:26;;;;;;;5.57;1.38;;;21.30;52.60;;;;;;5090476;28;20051;-70
2021/05/01 10:54:13;;;;;;;9.07;3.08;;;21.40;52.20;;;;;;5081982;28;20477;-67
2021/05/01 10:56:45;;;;;;;6.60;1.48;;;21.40;52.30;;;;;;5085954;28;20119;-71
2021/05/01 10:59:18;;;;;;;7.00;1.35;;;21.50;52.30;;;;;;5090540;28;20419;-70
2021/05/01 11:01:49;;;;;;;5.10;1.50;;;21.50;52.10;;;;;;5088896;28;20038;-68
2021/05/01 11:04:24;;;;;;;4.50;1.23;;;21.50;52.00;;;;;;5090873;28;20154;-69
2021/05/01 11:07:09;;;;;;;5.18;1.23;;;21.50;51.90;;;;;;5089655;28;20027;-72
2021/05/01 11:09:44;;;;;;;3.67;1.27;;;21.50;51.50;;;;;;5087675;28;20016;-71
2021/05/01 11:12:19;;;;;;;3.65;1.50;;;21.60;51.50;;;;;;5090214;28;20015;-66
2021/05/01 11:14:45;;;;;;;5.03;1.42;;;21.60;51.40;;;;;;5086603;28;20037;-69
2021/05/01 11:17:16;;;;;;;6.03;1.70;;;21.60;51.20;;;;;;5084801;28;20032;-65
2021/05/01 11:19:47;;;;;;;9.20;1.38;;;21.70;51.20;;;;;;5089997;28;20028;-65
2021/05/01 11:22:21;;;;;;;3.60;1.27;;;21.70;51.20;;;;;;5093892;28;20027;-66
2021/05/01 11:24:47;;;;;;;5.43;2.03;;;21.80;51.00;;;;;;5087077;28;20650;-66
2021/05/01 11:27:14;;;;;;;5.45;1.73;;;21.80;50.70;;;;;;5092991;28;20058;-70
2021/05/01 11:29:42;;;;;;;6.22;1.60;;;21.80;50.50;;;;;;5094387;28;20043;-66
2021/05/01 11:32:46;;;;;;;2.47;0.93;;;21.90;50.10;;;;;;5092258;28;20507;-68
2021/05/01 11:35:13;;;;;;;4.15;1.20;;;21.90;49.80;;;;;;5079962;28;20078;-70
2021/05/01 11:37:48;;;;;;;5.13;1.70;;;21.90;50.20;;;;;;5093889;28;20013;-67
2021/05/01 11:40:16;;;;;;;8.23;2.95;;;22.10;49.60;;;;;;5083792;28;20352;-69
2021/05/01 11:42:45;;;;;;;6.18;2.42;;;22.10;49.30;;;;;;5089642;28;20031;-69
2021/05/01 11:45:19;;;;;;;3.88;1.00;;;22.10;49.10;;;;;;5088964;28;20027;-70
2021/05/01 11:47:51;;;;;;;4.68;1.58;;;22.20;49.00;;;;;;5086538;28;20047;-67
2021/05/01 11:50:19;;;;;;;5.22;1.42;;;22.20;48.60;;;;;;5093181;28;20059;-71
2021/05/01 11:53:20;;;;;;;3.90;1.27;;;22.30;48.50;;;;;;5092674;28;20027;-66
2021/05/01 11:56:04;;;;;;;4.47;1.08;;;22.40;48.40;;;;;;5093662;28;20071;-67
2021/05/01 11:59:05;;;;;;;2.78;1.35;;;22.40;48.10;;;;;;5088728;28;20081;-69
2021/05/01 12:01:33;;;;;;;29.77;25.52;;;22.40;48.20;;;;;;5086563;28;20015;-73
2021/05/01 12:04:02;;;;;;;11.30;9.20;;;22.40;48.00;;;;;;5089384;28;20032;-70
2021/05/01 12:06:43;;;;;;;8.80;3.95;;;22.50;48.10;;;;;;5091360;28;20032;-70
2021/05/01 12:09:19;;;;;;;6.60;3.10;;;22.50;48.20;;;;;;5085993;28;20024;-69
2021/05/01 12:11:48;;;;;;;6.18;2.10;;;22.60;48.10;;;;;;5083184;28;20027;-69
2021/05/01 12:14:16;;;;;;;6.40;2.20;;;22.60;47.90;;;;;;5087363;28;20016;-70
2021/05/01 12:16:45;;;;;;;9.35;2.20;;;22.70;47.90;;;;;;5090562;28;20032;-70
2021/05/01 12:19:24;;;;;;;7.00;2.38;;;22.70;47.70;;;;;;5088623;28;20024;-70
2021/05/01 12:21:52;;;;;;;6.50;1.98;;;22.70;47.40;;;;;;5086262;28;20027;-70
2021/05/01 12:24:26;;;;;;;5.78;2.47;;;22.80;47.10;;;;;;5089144;28;20024;-68
2021/05/01 12:26:54;;;;;;;7.70;2.05;;;22.80;47.20;;;;;;5085527;28;20053;-71
2021/05/01 12:29:21;;;;;;;4.03;2.00;;;22.80;47.00;;;;;;5088491;28;20409;-71
2021/05/01 12:32:07;;;;;;;8.18;2.15;;;22.90;46.90;;;;;;5081374;28;20063;-70
2021/05/01 12:34:52;;;;;;;13.07;1.88;;;22.90;46.80;;;;;;5087667;28;20111;-70
2021/05/01 12:37:23;;;;;;;10.52;2.45;;;23.00;46.80;;;;;;5087640;28;20051;-69
2021/05/01 12:39:50;;;;;;;6.10;1.60;;;23.00;46.80;;;;;;5086645;28;20027;-69
2021/05/01 12:42:28;;;;;;;6.25;1.50;;;23.00;47.10;;;;;;5084457;28;20032;-68
2021/05/01 12:44:54;;;;;;;3.88;2.05;;;23.00;46.90;;;;;;5084947;28;20024;-70
2021/05/01 12:47:36;;;;;;;6.45;1.52;;;23.00;46.90;;;;;;5087806;28;20036;-70
2021/05/01 12:50:24;;;;;;;3.70;2.53;;;23.00;45.70;;;;;;5081508;28;20034;-70
2021/05/01 12:52:51;;;;;;;6.22;3.67;;;23.10;46.30;;;;;;5087265;28;20035;-70
2021/05/01 12:55:19;;;;;;;9.13;4.63;;;23.10;46.50;;;;;;5086560;28;20586;-71
2021/05/01 12:57:47;;;;;;;10.60;3.55;;;23.10;46.40;;;;;;5080066;28;20070;-69
2021/05/01 13:00:24;;;;;;;10.23;2.83;;;23.10;46.00;;;;;;5086463;28;20070;-68
2021/05/01 13:03:13;;;;;;;6.63;2.28;;;23.20;46.00;;;;;;5086838;28;20024;-68
2021/05/01 13:05:42;;;;;;;8.43;2.65;;;23.30;44.70;;;;;;5081263;28;20391;-70
2021/05/01 13:08:08;;;;;;;4.88;2.50;;;23.40;44.10;;;;;;5085705;28;20099;-69